Time;durP1;ratioP1;P1;durP2;ratioP2;P2;SDS_P1;SDS_P2;PMS_P1;PMS_P2;Temp;Humidity;BMP_temperature;BMP_pressure;BME280_temperature;BME280_humidity;BME280_pressure;Samples;Min_cycle;Max_cycle;Signal;HPM_P1;HPM_P2
2023/04/22 00:01:07;;;;;;;10.85;7.72;;;;;;;;;;5031220;28;20045;-80
2023/04/22 00:03:33;;;;;;;13.13;8.80;;;;;;;;;;5052661;28;20408;-80
2023/04/22 00:05:59;;;;;;;14.13;9.18;;;;;;;;;;5070195;28;20143;-80
2023/04/22 00:08:26;;;;;;;11.82;8.43;;;;;;;;;;5053434;28;20120;-80
2023/04/22 00:10:52;;;;;;;14.77;10.18;;;;;;;;;;5053873;28;20052;-80
2023/04/22 00:13:18;;;;;;;17.70;10.98;;;;;;;;;;5054496;28;20041;-80
2023/04/22 00:15:44;;;;;;;16.15;10.52;;;;;;;;;;5053605;28;20076;-80
2023/04/22 00:18:12;;;;;;;14.88;10.18;;;;;;;;;;5053443;28;20044;-80
2023/04/22 00:20:39;;;;;;;13.63;9.25;;;;;;;;;;5053308;28;20064;-80
2023/04/22 00:23:05;;;;;;;13.57;9.82;;;;;;;;;;5053081;28;20089;-79
2023/04/22 00:25:32;;;;;;;16.95;10.23;;;;;;;;;;5053386;28;20053;-80
2023/04/22 00:27:58;;;;;;;20.15;11.15;;;;;;;;;;5053333;28;20043;-80
2023/04/22 00:30:25;;;;;;;16.48;10.57;;;;;;;;;;5054205;28;20048;-80
2023/04/22 00:32:51;;;;;;;15.98;10.65;;;;;;;;;;5054423;28;20094;-80
2023/04/22 00:35:17;;;;;;;16.17;10.48;;;;;;;;;;5054088;28;20037;-80
2023/04/22 00:37:43;;;;;;;15.70;10.52;;;;;;;;;;5054553;28;20041;-80
2023/04/22 00:40:10;;;;;;;17.88;10.75;;;;;;;;;;5053937;28;20033;-80
2023/04/22 00:42:37;;;;;;;15.75;10.93;;;;;;;;;;5053408;28;20505;-80
2023/04/22 00:45:03;;;;;;;16.23;10.40;;;;;;;;;;5052974;28;20045;-79
2023/04/22 00:47:31;;;;;;;19.27;10.48;;;;;;;;;;5053171;28;20068;-80
2023/04/22 00:49:58;;;;;;;19.75;11.30;;;;;;;;;;5054075;28;20091;-80
2023/04/22 00:52:24;;;;;;;36.45;9.30;;;;;;;;;;5036285;28;20375;-80
2023/04/22 00:54:51;;;;;;;89.22;11.95;;;;;;;;;;5036541;28;20045;-80
2023/04/22 00:57:18;;;;;;;13.30;9.13;;;;;;;;;;5050958;28;20060;-79
2023/04/22 00:59:44;;;;;;;13.30;9.27;;;;;;;;;;5052865;28;20036;-79
2023/04/22 01:02:11;;;;;;;17.15;10.48;;;;;;;;;;5053293;28;20044;-80
2023/04/22 01:04:37;;;;;;;19.75;10.25;;;;;;;;;;5053771;28;20571;-80
2023/04/22 01:07:03;;;;;;;17.58;10.57;;;;;;;;;;5052912;28;20041;-79
2023/04/22 01:09:30;;;;;;;19.30;11.43;;;;;;;;;;5052694;28;20051;-80
2023/04/22 01:11:56;;;;;;;19.00;11.32;;;;;;;;;;5054633;28;20398;-79
2023/04/22 01:14:23;;;;;;;18.13;11.55;;;;;;;;;;5053966;28;20059;-79
2023/04/22 01:16:50;;;;;;;20.25;11.82;;;;;;;;;;5086884;28;20056;-79
2023/04/22 01:19:16;;;;;;;20.77;12.60;;;;;;;;;;5054341;28;20047;-79
2023/04/22 01:21:44;;;;;;;22.00;11.70;;;;;;;;;;5052411;28;20082;-79
2023/04/22 01:24:10;;;;;;;18.10;10.20;;;;;;;;;;5051762;28;20060;-79
2023/04/22 01:26:37;;;;;;;16.77;10.00;;;;;;;;;;5052463;28;20049;-80
2023/04/22 01:29:04;;;;;;;16.55;10.63;;;;;;;;;;5052446;28;20405;-79
2023/04/22 01:31:30;;;;;;;16.00;10.57;;;;;;;;;;5051465;28;20397;-79
2023/04/22 01:33:57;;;;;;;16.90;10.85;;;;;;;;;;5051782;28;20063;-79
2023/04/22 01:36:23;;;;;;;13.90;8.93;;;;;;;;;;5051656;28;20053;-80
2023/04/22 01:38:49;;;;;;;16.67;10.60;;;;;;;;;;5052269;28;20040;-79
2023/04/22 01:41:15;;;;;;;17.92;10.90;;;;;;;;;;5051592;28;20044;-80
2023/04/22 01:43:41;;;;;;;16.52;10.65;;;;;;;;;;5053131;28;20444;-80
2023/04/22 01:46:08;;;;;;;21.30;11.27;;;;;;;;;;5051921;28;20041;-80
2023/04/22 01:48:34;;;;;;;19.60;10.88;;;;;;;;;;5052978;28;20044;-79
2023/04/22 01:51:01;;;;;;;16.27;9.85;;;;;;;;;;5053372;28;20508;-80
2023/04/22 01:53:27;;;;;;;16.80;10.32;;;;;;;;;;5051674;28;20037;-79
2023/04/22 01:55:53;;;;;;;16.27;10.13;;;;;;;;;;5053092;28;20045;-79
2023/04/22 01:58:19;;;;;;;15.63;10.32;;;;;;;;;;5051423;28;20064;-79
2023/04/22 02:00:46;;;;;;;18.05;10.80;;;;;;;;;;5048934;28;20045;-80
2023/04/22 02:03:12;;;;;;;18.08;11.98;;;;;;;;;;5049755;28;20111;-79
2023/04/22 02:05:39;;;;;;;21.08;13.10;;;;;;;;;;5051892;28;20054;-79
2023/04/22 02:08:05;;;;;;;20.45;11.98;;;;;;;;;;5051263;28;20070;-79
2023/04/22 02:10:31;;;;;;;21.27;13.55;;;;;;;;;;5051029;28;20102;-79
2023/04/22 02:12:57;;;;;;;22.80;13.30;;;;;;;;;;5051356;28;20037;-79
2023/04/22 02:15:23;;;;;;;23.63;13.73;;;;;;;;;;5051423;28;20504;-79
2023/04/22 02:17:49;;;;;;;24.92;14.43;;;;;;;;;;5051277;28;20119;-79
2023/04/22 02:20:15;;;;;;;20.20;13.15;;;;;;;;;;5051323;28;20047;-79
2023/04/22 02:22:42;;;;;;;25.13;14.38;;;;;;;;;;5051381;28;20036;-79
2023/04/22 02:25:09;;;;;;;24.25;14.02;;;;;;;;;;5050875;28;20060;-79
2023/04/22 02:27:36;;;;;;;19.52;12.85;;;;;;;;;;5050976;28;20103;-79
2023/04/22 02:30:02;;;;;;;24.77;14.88;;;;;;;;;;5051303;28;20417;-80
2023/04/22 02:32:28;;;;;;;27.85;13.88;;;;;;;;;;5051037;28;20572;-80
2023/04/22 02:34:55;;;;;;;26.67;15.95;;;;;;;;;;5051242;28;20409;-80
2023/04/22 02:37:21;;;;;;;26.20;15.73;;;;;;;;;;5050790;28;20106;-79
2023/04/22 02:39:48;;;;;;;22.70;13.73;;;;;;;;;;5052311;28;20049;-79
2023/04/22 02:42:14;;;;;;;20.02;12.50;;;;;;;;;;5051175;28;20123;-79
2023/04/22 02:44:40;;;;;;;33.90;14.00;;;;;;;;;;5050748;28;20119;-80
2023/04/22 02:47:07;;;;;;;34.22;13.48;;;;;;;;;;5051166;28;20044;-79
2023/04/22 02:49:33;;;;;;;27.25;12.25;;;;;;;;;;5051640;28;20048;-80
2023/04/22 02:51:59;;;;;;;32.53;12.90;;;;;;;;;;5050780;28;20047;-80
2023/04/22 02:54:25;;;;;;;26.05;12.05;;;;;;;;;;5050577;28;20048;-79
2023/04/22 02:56:51;;;;;;;30.40;11.35;;;;;;;;;;5050803;28;20398;-80
2023/04/22 02:59:17;;;;;;;42.17;11.20;;;;;;;;;;5034278;28;20055;-80
2023/04/22 03:01:43;;;;;;;55.47;12.65;;;;;;;;;;5041137;28;20064;-80
2023/04/22 03:04:10;;;;;;;50.20;13.52;;;;;;;;;;5050462;28;20047;-79
2023/04/22 03:06:36;;;;;;;31.60;13.65;;;;;;;;;;5050374;28;20040;-79
2023/04/22 03:09:03;;;;;;;30.60;14.90;;;;;;;;;;5051813;28;20040;-79
2023/04/22 03:11:29;;;;;;;23.48;13.43;;;;;;;;;;5051637;28;20545;-79
2023/04/22 03:13:55;;;;;;;25.20;14.20;;;;;;;;;;5050738;28;20029;-79
2023/04/22 03:16:23;;;;;;;26.95;16.05;;;;;;;;;;5052201;28;20388;-80
2023/04/22 03:18:49;;;;;;;29.17;16.08;;;;;;;;;;5033704;28;20151;-79
2023/04/22 03:21:15;;;;;;;27.08;15.07;;;;;;;;;;5050851;28;20048;-80
2023/04/22 03:23:41;;;;;;;25.63;14.43;;;;;;;;;;5049929;28;20047;-79
2023/04/22 03:26:07;;;;;;;31.60;14.27;;;;;;;;;;5051813;28;20139;-80
2023/04/22 03:28:33;;;;;;;20.38;13.02;;;;;;;;;;5050138;28;20123;-80
2023/04/22 03:30:59;;;;;;;25.88;15.43;;;;;;;;;;5050661;28;20037;-80
2023/04/22 03:33:26;;;;;;;23.95;14.90;;;;;;;;;;5051474;28;20094;-80
2023/04/22 03:35:53;;;;;;;30.10;16.52;;;;;;;;;;5050226;28;20049;-80
2023/04/22 03:38:19;;;;;;;30.55;16.30;;;;;;;;;;5050743;28;20120;-80
2023/04/22 03:40:45;;;;;;;27.70;15.27;;;;;;;;;;5050023;28;20500;-79
2023/04/22 03:43:11;;;;;;;21.52;13.35;;;;;;;;;;5050558;28;20041;-80
2023/04/22 03:45:38;;;;;;;23.60;14.05;;;;;;;;;;5049971;28;20045;-80
2023/04/22 03:48:04;;;;;;;27.10;15.93;;;;;;;;;;5033743;28;20048;-80
2023/04/22 03:50:30;;;;;;;23.48;13.63;;;;;;;;;;5051035;28;20086;-79
2023/04/22 03:52:56;;;;;;;27.95;15.45;;;;;;;;;;5051420;28;20532;-80
2023/04/22 03:55:22;;;;;;;28.13;16.33;;;;;;;;;;5052271;28;20087;-79
2023/04/22 03:57:48;;;;;;;29.17;14.88;;;;;;;;;;5053616;28;20095;-79
2023/04/22 04:00:14;;;;;;;35.28;17.02;;;;;;;;;;5055423;28;20082;-79
2023/04/22 04:02:40;;;;;;;25.33;14.27;;;;;;;;;;5049171;28;20045;-79
2023/04/22 04:05:08;;;;;;;30.50;15.40;;;;;;;;;;5053923;28;20037;-79
2023/04/22 04:07:34;;;;;;;30.25;15.95;;;;;;;;;;5054361;28;20482;-79
2023/04/22 04:10:00;;;;;;;233.07;18.98;;;;;;;;;;5054963;28;20489;-79
2023/04/22 04:12:26;;;;;;;58.15;12.93;;;;;;;;;;5055183;28;20065;-79
2023/04/22 04:14:52;;;;;;;27.15;10.95;;;;;;;;;;5054715;28;20052;-80
2023/04/22 04:17:19;;;;;;;46.17;9.43;;;;;;;;;;5055251;28;20121;-79
2023/04/22 04:19:45;;;;;;;22.55;12.57;;;;;;;;;;5069949;28;20053;-79
2023/04/22 04:22:11;;;;;;;10.38;7.82;;;;;;;;;;5053394;28;20041;-79
2023/04/22 04:24:40;;;;;;;24.25;11.90;;;;;;;;;;5052812;28;20064;-79
2023/04/22 04:27:07;;;;;;;12.93;8.40;;;;;;;;;;5053482;28;20098;-79
2023/04/22 04:29:34;;;;;;;17.42;10.85;;;;;;;;;;5053203;28;20049;-79
2023/04/22 04:32:00;;;;;;;19.63;11.18;;;;;;;;;;5053603;28;20052;-79
2023/04/22 04:34:26;;;;;;;18.25;11.98;;;;;;;;;;5053373;28;20123;-79
2023/04/22 04:36:53;;;;;;;32.47;11.98;;;;;;;;;;5054084;28;20068;-79
2023/04/22 04:39:19;;;;;;;29.25;15.80;;;;;;;;;;5053389;28;20053;-79
2023/04/22 04:41:47;;;;;;;12.50;9.23;;;;;;;;;;5053943;28;20037;-80
2023/04/22 04:44:14;;;;;;;13.50;10.05;;;;;;;;;;5054094;28;20037;-79
2023/04/22 04:46:41;;;;;;;15.43;9.77;;;;;;;;;;5054269;28;20079;-79
2023/04/22 04:49:11;;;;;;;21.15;8.75;;;;;;;;;;5053439;28;20510;-79
2023/04/22 04:51:38;;;;;;;17.40;10.18;;;;;;;;;;5052441;28;20051;-80
2023/04/22 04:54:04;;;;;;;16.60;11.30;;;;;;;;;;5052828;28;20044;-79
2023/04/22 04:56:30;;;;;;;14.48;9.40;;;;;;;;;;5052882;28;20041;-79
2023/04/22 04:58:56;;;;;;;10.82;8.05;;;;;;;;;;5036032;28;20080;-79
2023/04/22 05:01:23;;;;;;;11.38;8.60;;;;;;;;;;5050574;28;20838;-79
2023/04/22 05:03:49;;;;;;;23.98;8.65;;;;;;;;;;5052387;28;20048;-79
2023/04/22 05:06:15;;;;;;;215.02;16.10;;;;;;;;;;5069009;28;20131;-80
2023/04/22 05:08:41;;;;;;;145.00;13.32;;;;;;;;;;5051870;28;20504;-79
2023/04/22 05:11:07;;;;;;;33.47;7.40;;;;;;;;;;5054083;28;20496;-79
2023/04/22 05:13:33;;;;;;;39.13;8.27;;;;;;;;;;5052643;28;20493;-79
2023/04/22 05:15:59;;;;;;;109.32;10.02;;;;;;;;;;5052704;28;20033;-79
2023/04/22 05:18:25;;;;;;;41.90;7.78;;;;;;;;;;5052751;28;20060;-79
2023/04/22 05:20:57;;;;;;;94.22;11.43;;;;;;;;;;5052381;28;20045;-79
2023/04/22 05:23:23;;;;;;;167.48;14.10;;;;;;;;;;5054041;28;20044;-79
2023/04/22 05:25:49;;;;;;;44.10;10.70;;;;;;;;;;5053319;28;20053;-79
2023/04/22 05:28:15;;;;;;;448.42;25.67;;;;;;;;;;5052520;28;20044;-79
2023/04/22 05:30:41;;;;;;;87.85;13.65;;;;;;;;;;5051900;28;20033;-80
2023/04/22 05:33:08;;;;;;;39.42;10.38;;;;;;;;;;5053514;28;20116;-79
2023/04/22 05:35:34;;;;;;;13.10;9.45;;;;;;;;;;5035420;28;20049;-79
2023/04/22 05:38:01;;;;;;;13.05;9.93;;;;;;;;;;5053245;28;20512;-79
2023/04/22 05:40:28;;;;;;;11.93;9.38;;;;;;;;;;5054241;28;20048;-79
2023/04/22 05:42:54;;;;;;;14.75;10.52;;;;;;;;;;5052354;28;20044;-80
2023/04/22 05:45:20;;;;;;;12.98;10.40;;;;;;;;;;5053033;28;20040;-79
2023/04/22 05:47:46;;;;;;;11.07;8.77;;;;;;;;;;5051659;28;20036;-80
2023/04/22 05:50:15;;;;;;;11.25;8.73;;;;;;;;;;5021453;28;20040;-79
2023/04/22 05:52:41;;;;;;;12.95;10.10;;;;;;;;;;5052980;28;20094;-80
2023/04/22 05:55:07;;;;;;;16.00;10.48;;;;;;;;;;5051879;28;20083;-80
2023/04/22 05:57:33;;;;;;;19.05;13.00;;;;;;;;;;5016019;28;20074;-80
2023/04/22 06:00:00;;;;;;;18.38;13.27;;;;;;;;;;5048349;28;20397;-80
2023/04/22 06:02:26;;;;;;;16.27;11.75;;;;;;;;;;5044976;28;20047;-80
2023/04/22 06:04:52;;;;;;;21.67;15.27;;;;;;;;;;5052317;28;20045;-80
2023/04/22 06:07:18;;;;;;;22.75;15.43;;;;;;;;;;5052775;28;20072;-80
2023/04/22 06:09:44;;;;;;;21.05;15.20;;;;;;;;;;5052635;28;20038;-80
2023/04/22 06:12:10;;;;;;;23.30;16.35;;;;;;;;;;5035003;28;20041;-80
2023/04/22 06:14:36;;;;;;;25.45;15.52;;;;;;;;;;5052765;28;20127;-80
2023/04/22 06:17:02;;;;;;;26.52;18.00;;;;;;;;;;5050929;28;20052;-80
2023/04/22 06:19:29;;;;;;;25.63;17.77;;;;;;;;;;5051497;28;20482;-80
2023/04/22 06:21:55;;;;;;;27.13;18.33;;;;;;;;;;5051073;28;20048;-80
2023/04/22 06:24:22;;;;;;;28.33;19.25;;;;;;;;;;5050752;28;20060;-80
2023/04/22 06:26:48;;;;;;;29.02;19.13;;;;;;;;;;5051030;28;20402;-80
2023/04/22 06:29:14;;;;;;;27.67;18.70;;;;;;;;;;5051207;28;20173;-80
2023/04/22 06:31:40;;;;;;;28.67;18.90;;;;;;;;;;5052346;28;20048;-80
2023/04/22 06:34:06;;;;;;;28.65;19.50;;;;;;;;;;5050553;28;20044;-80
2023/04/22 06:36:36;;;;;;;31.40;19.15;;;;;;;;;;5052435;28;20456;-80
2023/04/22 06:39:04;;;;;;;31.08;21.48;;;;;;;;;;5050559;28;20528;-80
2023/04/22 06:41:30;;;;;;;28.20;19.52;;;;;;;;;;5051044;28;20123;-80
2023/04/22 06:43:56;;;;;;;27.92;19.55;;;;;;;;;;5050635;28;20045;-80
2023/04/22 06:46:22;;;;;;;25.92;17.98;;;;;;;;;;5051840;28;20095;-81
2023/04/22 06:48:48;;;;;;;26.60;18.85;;;;;;;;;;5051889;28;20045;-80
2023/04/22 06:51:14;;;;;;;26.85;18.50;;;;;;;;;;5052110;28;20061;-80
2023/04/22 06:53:40;;;;;;;25.52;18.48;;;;;;;;;;5050972;28;20519;-80
2023/04/22 06:56:06;;;;;;;24.92;18.27;;;;;;;;;;5050464;28;20116;-81
2023/04/22 06:58:32;;;;;;;27.25;19.15;;;;;;;;;;5050847;28;20048;-80
2023/04/22 07:00:58;;;;;;;27.23;17.95;;;;;;;;;;5047240;28;20041;-80
2023/04/22 07:03:25;;;;;;;25.20;18.13;;;;;;;;;;5051030;28;20033;-80
2023/04/22 07:05:51;;;;;;;27.85;17.63;;;;;;;;;;5050282;28;20041;-80
2023/04/22 07:08:17;;;;;;;24.50;18.05;;;;;;;;;;5051888;28;20049;-80
2023/04/22 07:10:43;;;;;;;25.67;18.60;;;;;;;;;;5051870;28;20163;-80
2023/04/22 07:13:09;;;;;;;26.10;18.35;;;;;;;;;;5050449;28;20064;-80
2023/04/22 07:15:35;;;;;;;23.48;17.55;;;;;;;;;;5052022;28;20049;-80
2023/04/22 07:18:01;;;;;;;24.35;17.52;;;;;;;;;;5051829;28;20053;-80
2023/04/22 07:20:27;;;;;;;25.65;18.13;;;;;;;;;;5084029;28;20055;-80
2023/04/22 07:22:53;;;;;;;24.52;17.83;;;;;;;;;;5033629;28;20095;-80
2023/04/22 07:25:19;;;;;;;24.30;17.23;;;;;;;;;;5033861;28;20505;-80
2023/04/22 07:27:46;;;;;;;23.80;17.40;;;;;;;;;;5050541;28;20087;-80
2023/04/22 07:30:12;;;;;;;22.98;17.65;;;;;;;;;;5031240;28;20513;-80
2023/04/22 07:32:38;;;;;;;25.40;18.05;;;;;;;;;;5053424;28;20397;-80
2023/04/22 07:35:05;;;;;;;24.33;17.40;;;;;;;;;;5054143;28;20091;-81
2023/04/22 07:37:31;;;;;;;23.40;17.38;;;;;;;;;;5054328;28;20040;-80
2023/04/22 07:39:57;;;;;;;23.80;17.80;;;;;;;;;;5054148;28;20053;-80
2023/04/22 07:42:23;;;;;;;22.73;17.33;;;;;;;;;;5054266;28;20140;-80
2023/04/22 07:44:49;;;;;;;22.88;16.30;;;;;;;;;;5054239;28;20049;-81
2023/04/22 07:47:15;;;;;;;21.77;16.38;;;;;;;;;;5054946;28;20048;-80
2023/04/22 07:49:42;;;;;;;21.67;16.98;;;;;;;;;;5054480;28;20045;-81
2023/04/22 07:52:08;;;;;;;23.17;16.38;;;;;;;;;;5053969;28;20053;-81
2023/04/22 07:54:34;;;;;;;21.05;16.30;;;;;;;;;;5055156;28;20037;-80
2023/04/22 07:57:00;;;;;;;20.63;16.17;;;;;;;;;;5053716;28;20126;-81
2023/04/22 07:59:26;;;;;;;22.65;16.92;;;;;;;;;;5053937;28;20043;-80
2023/04/22 08:01:52;;;;;;;20.80;16.17;;;;;;;;;;5053136;28;20049;-81
2023/04/22 08:04:21;;;;;;;19.60;15.63;;;;;;;;;;5054657;28;20041;-81
2023/04/22 08:06:47;;;;;;;20.48;15.77;;;;;;;;;;5055065;28;20041;-80
2023/04/22 08:09:13;;;;;;;21.27;15.98;;;;;;;;;;5054932;28;20049;-81
2023/04/22 08:11:39;;;;;;;21.38;16.83;;;;;;;;;;5053654;28;20052;-80
2023/04/22 08:14:05;;;;;;;20.90;16.23;;;;;;;;;;5054548;28;20094;-81
2023/04/22 08:16:32;;;;;;;22.27;16.42;;;;;;;;;;5054207;28;20052;-81
2023/04/22 08:18:58;;;;;;;20.38;14.50;;;;;;;;;;5053901;28;20070;-81
2023/04/22 08:21:24;;;;;;;20.80;15.10;;;;;;;;;;5053785;28;20103;-81
2023/04/22 08:23:50;;;;;;;20.15;15.52;;;;;;;;;;5053125;28;20057;-80
2023/04/22 08:26:17;;;;;;;23.38;16.60;;;;;;;;;;5053015;28;20049;-80
2023/04/22 08:28:43;;;;;;;19.70;14.75;;;;;;;;;;5053466;28;20130;-81
2023/04/22 08:31:10;;;;;;;19.63;13.23;;;;;;;;;;5054695;28;20041;-82
2023/04/22 08:33:36;;;;;;;18.48;13.70;;;;;;;;;;5037212;28;20063;-81
2023/04/22 08:36:03;;;;;;;20.30;13.90;;;;;;;;;;5054182;28;20123;-82
2023/04/22 08:38:29;;;;;;;19.52;13.30;;;;;;;;;;5053377;28;20124;-81
2023/04/22 08:40:56;;;;;;;16.15;12.80;;;;;;;;;;5053221;28;20123;-81
2023/04/22 08:43:25;;;;;;;17.63;13.48;;;;;;;;;;5052988;28;20080;-81
2023/04/22 08:45:51;;;;;;;15.27;11.85;;;;;;;;;;5054410;28;20115;-82
2023/04/22 08:48:18;;;;;;;16.75;11.70;;;;;;;;;;5054065;28;20041;-82
2023/04/22 08:50:46;;;;;;;14.25;11.75;;;;;;;;;;5054449;28;20436;-83
2023/04/22 08:53:12;;;;;;;14.13;10.98;;;;;;;;;;5053828;28;20512;-82
2023/04/22 08:55:40;;;;;;;15.15;10.77;;;;;;;;;;5054026;28;20044;-80
2023/04/22 08:58:06;;;;;;;11.43;9.10;;;;;;;;;;5053485;28;20041;-81
2023/04/22 09:00:33;;;;;;;12.38;9.90;;;;;;;;;;5053355;28;20558;-80
2023/04/22 09:03:01;;;;;;;11.43;9.32;;;;;;;;;;5046435;28;20076;-80
2023/04/22 09:05:28;;;;;;;11.85;9.20;;;;;;;;;;5053231;28;20045;-81
2023/04/22 09:07:56;;;;;;;12.10;9.02;;;;;;;;;;5052656;28;20044;-80
2023/04/22 09:10:22;;;;;;;13.02;9.57;;;;;;;;;;5052523;28;20531;-81
2023/04/22 09:12:49;;;;;;;12.13;9.43;;;;;;;;;;5052492;28;20044;-81
2023/04/22 09:15:15;;;;;;;10.85;8.63;;;;;;;;;;5052023;28;20120;-81
2023/04/22 09:17:42;;;;;;;11.73;9.00;;;;;;;;;;5052743;28;20440;-80
2023/04/22 09:20:08;;;;;;;11.15;8.57;;;;;;;;;;5052352;28;20077;-82
2023/04/22 09:22:39;;;;;;;12.10;8.90;;;;;;;;;;5052635;28;20127;-81
2023/04/22 09:25:07;;;;;;;10.88;8.45;;;;;;;;;;5053232;28;20088;-80
2023/04/22 09:27:35;;;;;;;13.10;9.00;;;;;;;;;;5053468;28;20099;-80
2023/04/22 09:30:01;;;;;;;12.00;8.95;;;;;;;;;;5052398;28;20045;-82
2023/04/22 09:32:27;;;;;;;10.68;8.43;;;;;;;;;;5053159;28;20040;-81
2023/04/22 09:34:54;;;;;;;11.07;8.30;;;;;;;;;;5052251;28;20111;-80
2023/04/22 09:37:26;;;;;;;11.98;8.60;;;;;;;;;;5051962;28;20493;-79
2023/04/22 09:39:53;;;;;;;13.13;8.88;;;;;;;;;;5053286;28;20051;-80
2023/04/22 09:42:20;;;;;;;10.73;8.70;;;;;;;;;;5051722;28;20045;-80
2023/04/22 09:44:47;;;;;;;12.50;8.57;;;;;;;;;;5051825;28;20048;-80
2023/04/22 09:47:13;;;;;;;10.05;8.07;;;;;;;;;;5051698;28;20048;-80
2023/04/22 09:49:39;;;;;;;13.98;8.75;;;;;;;;;;5051979;28;20089;-80
2023/04/22 09:52:06;;;;;;;10.02;7.90;;;;;;;;;;5035481;28;20049;-80
2023/04/22 09:54:32;;;;;;;11.18;7.78;;;;;;;;;;5050845;28;20126;-80
2023/04/22 09:56:58;;;;;;;9.90;8.32;;;;;;;;;;5035254;28;20041;-80
2023/04/22 09:59:25;;;;;;;12.77;8.80;;;;;;;;;;5052471;28;20134;-80
2023/04/22 10:01:53;;;;;;;10.85;8.13;;;;;;;;;;5048113;28;20126;-80
2023/04/22 10:04:24;;;;;;;9.05;7.80;;;;;;;;;;5052249;28;20033;-80
2023/04/22 10:06:50;;;;;;;9.95;8.02;;;;;;;;;;5065525;28;20048;-80
2023/04/22 10:09:21;;;;;;;10.52;7.25;;;;;;;;;;5052565;28;20044;-80
2023/04/22 10:11:47;;;;;;;10.43;7.90;;;;;;;;;;5051422;28;20070;-80
2023/04/22 10:14:13;;;;;;;9.30;7.80;;;;;;;;;;5052598;28;20040;-80
2023/04/22 10:16:41;;;;;;;11.32;7.70;;;;;;;;;;5068308;28;20047;-80
2023/04/22 10:19:09;;;;;;;10.73;7.80;;;;;;;;;;5051612;28;20398;-80
2023/04/22 10:21:36;;;;;;;8.93;7.60;;;;;;;;;;5051560;28;20053;-80
2023/04/22 10:24:04;;;;;;;8.05;6.63;;;;;;;;;;5052712;28;20134;-80
2023/04/22 10:26:50;;;;;;;9.77;6.97;;;;;;;;;;5050975;28;20498;-80
2023/04/22 10:29:18;;;;;;;9.18;6.78;;;;;;;;;;5050854;28;20098;-80
2023/04/22 10:32:04;;;;;;;8.60;6.55;;;;;;;;;;5051307;28;20098;-80
2023/04/22 10:34:34;;;;;;;8.52;6.93;;;;;;;;;;5084254;28;20041;-80
2023/04/22 10:37:00;;;;;;;8.20;7.05;;;;;;;;;;5051258;28;20040;-80
2023/04/22 10:39:27;;;;;;;8.73;7.10;;;;;;;;;;5051041;28;20040;-80
2023/04/22 10:41:53;;;;;;;22.73;7.72;;;;;;;;;;5052941;28;20119;-80
2023/04/22 10:44:21;;;;;;;8.15;6.90;;;;;;;;;;5051092;28;20045;-80
2023/04/22 10:46:51;;;;;;;8.13;7.25;;;;;;;;;;5053284;28;20045;-80
2023/04/22 10:49:21;;;;;;;10.13;7.40;;;;;;;;;;5051764;28;20045;-80
2023/04/22 10:51:51;;;;;;;9.13;7.65;;;;;;;;;;5051672;28;20048;-80
2023/04/22 10:54:26;;;;;;;9.15;7.53;;;;;;;;;;5034748;28;20485;-80
2023/04/22 10:57:06;;;;;;;9.05;7.30;;;;;;;;;;5051023;28;20174;-82
2023/04/22 10:59:33;;;;;;;10.35;7.63;;;;;;;;;;5050708;28;20591;-81
2023/04/22 11:02:05;;;;;;;8.60;7.68;;;;;;;;;;5045934;28;20486;-81
2023/04/22 11:04:31;;;;;;;8.63;7.60;;;;;;;;;;5049808;28;20124;-81
2023/04/22 11:07:12;;;;;;;11.38;8.00;;;;;;;;;;5051945;28;20111;-81
2023/04/22 11:09:39;;;;;;;9.57;8.57;;;;;;;;;;5050777;28;20041;-82
2023/04/22 11:12:24;;;;;;;10.05;7.82;;;;;;;;;;5034429;28;20482;-81
2023/04/22 11:14:50;;;;;;;10.23;8.38;;;;;;;;;;5050783;28;20083;-82
2023/04/22 11:17:18;;;;;;;8.77;7.47;;;;;;;;;;5051996;28;20040;-82
2023/04/22 11:19:46;;;;;;;9.43;7.32;;;;;;;;;;5050338;28;20041;-81
2023/04/22 11:22:12;;;;;;;10.13;7.55;;;;;;;;;;5051988;28;20040;-81
2023/04/22 11:24:39;;;;;;;8.48;7.50;;;;;;;;;;5051524;28;20475;-81
2023/04/22 11:27:05;;;;;;;10.65;8.35;;;;;;;;;;5050722;28;20049;-81
2023/04/22 11:29:31;;;;;;;9.10;7.70;;;;;;;;;;5050474;28;20041;-81
2023/04/22 11:31:57;;;;;;;10.80;7.75;;;;;;;;;;5050721;28;20041;-81
2023/04/22 11:34:23;;;;;;;11.68;7.75;;;;;;;;;;5050294;28;20033;-82
2023/04/22 11:36:49;;;;;;;10.30;7.82;;;;;;;;;;5050229;28;20041;-81
2023/04/22 11:39:17;;;;;;;9.50;7.72;;;;;;;;;;5067316;28;20086;-82
2023/04/22 11:41:43;;;;;;;9.85;8.52;;;;;;;;;;5051394;28;20037;-81
2023/04/22 11:44:09;;;;;;;9.10;8.02;;;;;;;;;;5034045;28;20513;-81
2023/04/22 11:46:38;;;;;;;9.95;7.80;;;;;;;;;;5050274;28;20040;-81
2023/04/22 11:49:11;;;;;;;10.38;7.85;;;;;;;;;;5051709;28;20049;-81
2023/04/22 11:51:37;;;;;;;11.90;7.68;;;;;;;;;;5051485;28;20049;-81
2023/04/22 11:54:03;;;;;;;10.50;8.30;;;;;;;;;;5050284;28;20045;-81
2023/04/22 11:56:29;;;;;;;10.57;7.95;;;;;;;;;;5051346;28;20041;-81
2023/04/22 11:58:55;;;;;;;9.93;8.07;;;;;;;;;;5051923;28;20500;-81
2023/04/22 12:01:22;;;;;;;9.07;8.02;;;;;;;;;;5042908;28;20402;-81
2023/04/22 12:03:50;;;;;;;12.18;8.10;;;;;;;;;;5045159;28;20405;-81
2023/04/22 12:06:16;;;;;;;12.43;7.78;;;;;;;;;;5051566;28;20032;-81
2023/04/22 12:08:43;;;;;;;9.93;8.15;;;;;;;;;;5049738;28;20053;-81
2023/04/22 12:11:10;;;;;;;11.15;8.15;;;;;;;;;;5050461;28;20041;-81
2023/04/22 12:13:36;;;;;;;11.65;7.75;;;;;;;;;;5051102;28;20072;-81
2023/04/22 12:16:03;;;;;;;10.52;8.57;;;;;;;;;;5051593;28;20418;-81
2023/04/22 12:18:30;;;;;;;12.40;8.65;;;;;;;;;;5037171;28;20036;-81
2023/04/22 12:21:09;;;;;;;11.45;8.60;;;;;;;;;;5053930;28;20045;-81
2023/04/22 12:23:45;;;;;;;13.35;8.98;;;;;;;;;;5053093;28;20040;-80
2023/04/22 12:26:12;;;;;;;11.05;8.32;;;;;;;;;;5073645;28;20061;-81
2023/04/22 12:28:38;;;;;;;8.85;7.95;;;;;;;;;;5053088;28;20041;-81
2023/04/22 12:31:05;;;;;;;11.15;8.73;;;;;;;;;;5053718;28;20040;-81
2023/04/22 12:33:31;;;;;;;10.32;9.00;;;;;;;;;;5053626;28;20090;-81
2023/04/22 12:35:58;;;;;;;10.98;9.15;;;;;;;;;;5020260;28;20119;-81
2023/04/22 12:38:24;;;;;;;11.18;9.13;;;;;;;;;;5054581;28;20039;-81
2023/04/22 12:40:50;;;;;;;11.57;9.10;;;;;;;;;;5054081;28;20398;-81
2023/04/22 12:43:16;;;;;;;14.73;9.45;;;;;;;;;;5054479;28;20037;-81
2023/04/22 12:45:42;;;;;;;11.52;8.38;;;;;;;;;;5036119;28;20056;-81
2023/04/22 12:48:09;;;;;;;10.88;8.57;;;;;;;;;;5053297;28;20049;-81
2023/04/22 12:50:35;;;;;;;10.70;8.15;;;;;;;;;;5054344;28;20485;-80
2023/04/22 12:53:01;;;;;;;10.30;8.32;;;;;;;;;;5053126;28;20094;-81
2023/04/22 12:55:27;;;;;;;10.52;8.80;;;;;;;;;;5053015;28;20040;-81
2023/04/22 12:57:54;;;;;;;11.43;8.93;;;;;;;;;;5036023;28;20053;-81
2023/04/22 13:00:20;;;;;;;10.75;8.77;;;;;;;;;;5054035;28;20067;-81
2023/04/22 13:02:47;;;;;;;11.80;8.80;;;;;;;;;;5042053;28;20048;-81
2023/04/22 13:05:13;;;;;;;12.15;9.43;;;;;;;;;;5053989;28;20071;-81
2023/04/22 13:07:40;;;;;;;12.10;9.02;;;;;;;;;;5052655;28;20073;-81
2023/04/22 13:10:07;;;;;;;11.68;8.82;;;;;;;;;;5052774;28;20069;-81
2023/04/22 13:12:33;;;;;;;12.65;9.85;;;;;;;;;;5052949;28;20363;-81
2023/04/22 13:15:00;;;;;;;11.15;9.02;;;;;;;;;;5052429;28;20120;-81
2023/04/22 13:17:26;;;;;;;10.82;9.18;;;;;;;;;;5053722;28;20045;-81
2023/04/22 13:19:52;;;;;;;12.65;8.90;;;;;;;;;;5053551;28;20033;-81
2023/04/22 13:22:18;;;;;;;11.25;8.70;;;;;;;;;;5053845;28;20121;-81
2023/04/22 13:24:45;;;;;;;10.43;8.27;;;;;;;;;;5035348;28;20508;-81
2023/04/22 13:27:11;;;;;;;13.23;9.82;;;;;;;;;;5052371;28;20088;-82
2023/04/22 13:29:37;;;;;;;12.18;9.27;;;;;;;;;;5035228;28;20045;-82
2023/04/22 13:32:03;;;;;;;13.45;9.68;;;;;;;;;;5052227;28;20440;-82
2023/04/22 13:34:30;;;;;;;14.15;9.88;;;;;;;;;;5053577;28;20582;-82
2023/04/22 13:36:56;;;;;;;12.32;9.57;;;;;;;;;;5051921;28;20036;-82
2023/04/22 13:39:22;;;;;;;16.92;10.77;;;;;;;;;;5053521;28;20124;-82
2023/04/22 13:41:48;;;;;;;12.85;10.57;;;;;;;;;;5051921;28;20478;-82
2023/04/22 13:44:14;;;;;;;13.98;11.13;;;;;;;;;;5053488;28;20037;-82
2023/04/22 13:46:41;;;;;;;16.05;13.00;;;;;;;;;;5053260;28;20045;-82
2023/04/22 13:49:07;;;;;;;20.00;13.73;;;;;;;;;;5052800;28;20033;-82
2023/04/22 13:51:34;;;;;;;21.92;14.35;;;;;;;;;;5051895;28;20044;-82
2023/04/22 13:54:00;;;;;;;18.13;14.10;;;;;;;;;;5051653;28;20112;-82
2023/04/22 13:56:27;;;;;;;25.58;19.83;;;;;;;;;;5035370;28;20052;-85
2023/04/22 13:58:53;;;;;;;19.10;14.68;;;;;;;;;;5034658;28;20075;-81
2023/04/22 14:01:19;;;;;;;17.10;14.20;;;;;;;;;;5045691;28;20048;-81
2023/04/22 14:03:46;;;;;;;17.02;14.15;;;;;;;;;;5050396;28;20128;-81
2023/04/22 14:06:12;;;;;;;18.75;14.80;;;;;;;;;;5052971;28;20111;-81
2023/04/22 14:08:38;;;;;;;19.35;14.23;;;;;;;;;;5051388;28;20094;-81
2023/04/22 14:11:06;;;;;;;16.48;13.68;;;;;;;;;;5051194;28;20143;-81
2023/04/22 14:13:32;;;;;;;18.30;13.90;;;;;;;;;;5051448;28;20041;-81
2023/04/22 14:15:58;;;;;;;23.95;17.58;;;;;;;;;;5051085;28;20083;-81
2023/04/22 14:18:24;;;;;;;35.10;20.95;;;;;;;;;;5051619;28;20494;-82
2023/04/22 14:20:51;;;;;;;32.22;21.35;;;;;;;;;;5052052;28;20040;-82